Aérodrome :
LOGIN :

S'inscrire | Disclaimer

   EN    FR    IT 

 










Légende :    VFR   VFR Marginal   IFR   IFR Intensif   IFR Très Intensif
Visi : 
Plafond : 
>= 8 km
>= 3000ft
5 à 8 km
1000 à 3000 ft
1500m à 5 km
500 à 1000 ft
800 à 1500m
200 à 500 ft
< 800m
< 200 ft
Symboles :   Orages  Brouillard  Fortes neiges  Fortes précipitations  Vent > 20 kt
SIGMETs :   Divers  Orages  Givrage  Turbulence  Onde Orograph.  Cendres Volcan.






- Altitude de l'aérodrome : 12 ft
- Code IATA : NCE


LFMN - Nice

DERNIER METAR :
  • 290430Z 36003KT 9999 FEW010 SCT100 BKN230 18/14 Q1015 NOSIG

METARs EXPIRÉS :
  • 290400Z 32003KT 9999 SCT100 BKN230 18/14 Q1015 NOSIG
  • 290330Z 01003KT 9999 SCT100 BKN230 18/15 Q1015 NOSIG
  • 290300Z 04005KT 9999 SCT100 BKN230 18/15 Q1014 NOSIG
  • 290230Z 04005KT 9999 SCT100 BKN230 18/14 Q1014 NOSIG
  • 290200Z 03005KT 9999 SCT100 BKN230 19/15 Q1014 NOSIG
  • 290130Z 02003KT 9999 SCT100 BKN230 19/15 Q1014 NOSIG
  • 290100Z 35004KT 9999 FEW100 BKN260 19/15 Q1015 NOSIG
  • 290030Z 33005KT 9999 FEW100 BKN260 19/15 Q1015 NOSIG
  • 290000Z 33005KT 9999 FEW100 BKN260 19/15 Q1015 NOSIG

TAF TAF LFMN
Valide du 29 à 03h jusqu'au 30 à 09h UTC


290200Z 2903/3009 33007KT CAVOK
PROB40
TEMPO 2912/2917 20010KT
ATIS : +33 4 93 17 21 16



MET'MAP, la Météo Aéronautique d'un coup d'oeil ! - Copyright ORBIFLY Décembre 2007 - Disclaimer

ORBIFLY MET'MAP TEAM :

Programmation & Développement : Alexandra Zaïnal
Sur une idée originale de : Baudouin d'Aumeries
Soutien technique & logistique : Manuel Goepfert
Assistance : Marc-Olivier Méhu




SOURCES & CREDITS :

   NOAA